createdAt,value
2022-10-09T07:22:04.771Z,9.85
2022-10-09T07:24:32.642Z,9.05
2022-10-09T07:27:00.357Z,9.65
2022-10-09T07:29:28.095Z,9.85
2022-10-09T07:31:55.958Z,10.80
2022-10-09T07:34:23.836Z,11.85
2022-10-09T07:36:51.511Z,9.15
2022-10-09T07:39:20.748Z,8.65
2022-10-09T07:41:51.533Z,8.63
2022-10-09T07:44:19.275Z,12.02
2022-10-09T07:46:47.237Z,7.68
2022-10-09T07:49:16.571Z,8.82
2022-10-09T07:51:45.185Z,11.82
2022-10-09T07:54:12.883Z,11.90
2022-10-09T07:56:41.955Z,12.55
2022-10-09T07:59:13.987Z,9.05
2022-10-09T08:01:42.674Z,9.95
2022-10-09T08:04:10.880Z,8.32
2022-10-09T08:06:39.138Z,10.93
2022-10-09T08:09:09.094Z,8.88
2022-10-09T08:11:40.448Z,6.03
2022-10-09T08:14:18.086Z,11.00
2022-10-09T08:16:47.015Z,10.68
2022-10-09T08:19:14.946Z,7.68
2022-10-09T08:21:42.715Z,8.15
2022-10-09T08:24:11.487Z,9.68
2022-10-09T08:26:39.253Z,8.90
2022-10-09T08:29:10.826Z,8.90
2022-10-09T08:31:38.785Z,7.93
2022-10-09T08:34:06.889Z,9.18
2022-10-09T08:36:34.613Z,11.60
2022-10-09T08:39:02.314Z,8.20
2022-10-09T08:41:45.810Z,7.65
2022-10-09T08:44:23.196Z,10.07
2022-10-09T08:46:59.305Z,7.30
2022-10-09T08:49:33.448Z,10.57
2022-10-09T08:52:16.755Z,7.72
2022-10-09T08:54:44.955Z,7.85
2022-10-09T08:57:15.591Z,5.93
2022-10-09T08:59:45.314Z,10.82
2022-10-09T09:02:29.724Z,8.68
2022-10-09T09:05:10.086Z,10.00
2022-10-09T09:07:45.021Z,9.75
2022-10-09T09:10:21.183Z,8.25
2022-10-09T09:12:56.354Z,7.03
2022-10-09T09:15:37.279Z,8.18
2022-10-09T09:18:19.214Z,10.27
2022-10-09T09:20:53.635Z,12.48
2022-10-09T09:23:27.964Z,9.15
2022-10-09T09:25:57.697Z,9.95
2022-10-09T09:28:29.274Z,7.35
2022-10-09T09:31:01.829Z,13.32
2022-10-09T09:33:43.579Z,7.38
2022-10-09T09:36:19.185Z,9.45
2022-10-09T09:39:13.505Z,8.73
2022-10-09T09:41:34.705Z,9.57
2022-10-09T09:44:02.479Z,7.90
2022-10-09T09:46:33.535Z,7.70
2022-10-09T09:49:02.995Z,9.48
2022-10-09T09:51:34.149Z,9.95
2022-10-09T10:02:32.239Z,8.63
2022-10-09T10:05:02.350Z,8.98
2022-10-09T10:07:35.273Z,11.05
2022-10-09T10:10:14.314Z,10.35
2022-10-09T10:12:43.036Z,7.07
2022-10-09T10:15:29.216Z,8.20
2022-10-09T10:18:04.682Z,7.35
2022-10-09T10:20:34.688Z,8.05
2022-10-09T10:23:02.573Z,7.70
2022-10-09T10:25:33.484Z,9.13
2022-10-09T10:28:04.525Z,8.50
2022-10-09T10:30:35.648Z,9.45
2022-10-09T10:33:09.244Z,8.20
2022-10-09T10:35:40.289Z,7.07
2022-10-09T10:38:14.014Z,6.80
2022-10-09T10:40:47.484Z,9.50
2022-10-09T10:43:30.090Z,7.97
2022-10-09T10:46:03.604Z,7.47
2022-10-09T10:48:39.615Z,4.55
2022-10-09T10:51:22.642Z,6.00
2022-10-09T10:54:04.988Z,10.50
2022-10-09T10:56:36.829Z,6.65
2022-10-09T10:59:37.832Z,7.35
2022-10-09T11:02:42.319Z,5.20
2022-10-09T11:05:35.438Z,9.02
2022-10-09T11:08:14.495Z,5.97
2022-10-09T11:10:55.921Z,6.60
2022-10-09T11:13:30.389Z,7.38
2022-10-09T11:16:07.586Z,4.78
2022-10-09T11:18:53.816Z,5.60
2022-10-09T11:21:41.883Z,5.65
2022-10-09T11:24:33.606Z,3.63
2022-10-09T11:27:12.170Z,5.18
2022-10-09T11:29:45.601Z,2.80
2022-10-09T11:32:19.620Z,6.38
2022-10-09T11:34:52.059Z,3.83
2022-10-09T11:37:26.486Z,5.32
2022-10-09T11:39:54.495Z,3.45
2022-10-09T11:42:26.134Z,3.55
2022-10-09T11:45:08.740Z,2.65
2022-10-09T11:47:45.466Z,2.92
2022-10-09T11:50:27.784Z,4.28
2022-10-09T11:53:01.793Z,4.07
2022-10-09T11:55:32.390Z,3.55
2022-10-09T11:58:14.964Z,4.65
2022-10-09T12:00:43.627Z,3.22
2022-10-09T12:03:27.572Z,3.00
2022-10-09T12:06:05.987Z,1.55
2022-10-09T12:08:35.856Z,3.83
2022-10-09T12:11:13.151Z,2.00
2022-10-09T12:13:50.212Z,2.22
2022-10-09T12:16:37.621Z,1.50
2022-10-09T12:19:14.780Z,7.30
2022-10-09T12:21:49.622Z,2.30
2022-10-09T12:24:22.730Z,2.97
2022-10-09T12:26:52.412Z,3.45
2022-10-09T12:29:26.218Z,1.52
2022-10-09T12:31:57.946Z,2.33
2022-10-09T12:34:30.954Z,3.00
2022-10-09T12:37:12.607Z,3.33
2022-10-09T12:39:42.250Z,2.65
2022-10-09T12:42:17.995Z,4.07
2022-10-09T12:44:46.842Z,2.67
2022-10-09T12:47:20.175Z,2.97
2022-10-09T12:50:02.113Z,3.25
2022-10-09T12:52:29.950Z,3.78
2022-10-09T12:54:59.557Z,2.17
2022-10-09T12:57:28.084Z,3.38
2022-10-09T12:59:56.659Z,2.50
2022-10-09T13:02:24.727Z,2.33
2022-10-09T13:04:58.018Z,3.03
2022-10-09T13:07:28.405Z,2.35
2022-10-09T13:10:03.470Z,4.55
2022-10-09T13:12:32.707Z,4.10
2022-10-09T13:15:01.875Z,1.88
2022-10-09T13:17:32.934Z,3.13
2022-10-09T13:20:02.557Z,3.53
2022-10-09T13:22:33.642Z,2.00
2022-10-09T13:25:06.459Z,3.15
2022-10-09T13:27:38.982Z,2.28
2022-10-09T13:30:09.032Z,3.60
2022-10-09T13:32:36.780Z,1.75
2022-10-09T13:35:04.883Z,2.08
2022-10-09T13:37:32.558Z,2.63
2022-10-09T13:40:00.984Z,3.58
2022-10-09T13:42:33.574Z,4.10
2022-10-09T13:45:01.545Z,2.65
2022-10-09T13:47:29.400Z,2.10
2022-10-09T13:49:57.410Z,2.92
2022-10-09T13:52:25.486Z,2.78
2022-10-09T13:54:53.445Z,3.63
2022-10-09T13:57:21.702Z,2.60
2022-10-09T13:59:51.011Z,2.72
2022-10-09T14:02:19.161Z,3.88
2022-10-09T14:04:46.979Z,2.95
2022-10-09T14:07:15.039Z,1.80
2022-10-09T14:09:43.120Z,2.22
2022-10-09T14:12:10.871Z,2.75
2022-10-09T14:14:39.272Z,2.65
2022-10-09T14:17:08.407Z,1.88
2022-10-09T14:19:36.556Z,1.38
2022-10-09T14:22:04.601Z,3.47
2022-10-09T14:24:32.992Z,2.08
2022-10-09T14:27:01.093Z,3.47
2022-10-09T14:29:29.221Z,1.80
2022-10-09T14:31:57.254Z,3.85
2022-10-09T14:34:26.651Z,3.25
2022-10-09T14:36:54.920Z,2.42
2022-10-09T14:39:22.859Z,2.80
2022-10-09T14:41:50.747Z,4.13
2022-10-09T14:44:18.593Z,2.08
2022-10-09T14:46:46.222Z,3.15
2022-10-09T14:49:14.006Z,1.90
2022-10-09T14:51:43.641Z,2.30
2022-10-09T14:54:12.954Z,4.57
2022-10-09T14:56:40.651Z,3.53
2022-10-09T14:59:08.347Z,3.97
2022-10-09T15:01:36.485Z,3.78
2022-10-09T15:04:07.613Z,3.70
2022-10-09T15:06:35.808Z,3.03
2022-10-09T15:09:06.187Z,2.80
2022-10-09T15:11:35.605Z,2.13
2022-10-09T15:14:03.452Z,2.22
2022-10-09T15:16:31.608Z,3.88
2022-10-09T15:18:59.303Z,3.60
2022-10-09T15:21:29.591Z,1.30
2022-10-09T15:23:59.723Z,2.45
2022-10-09T15:26:32.760Z,4.57
2022-10-09T15:29:02.874Z,2.45
2022-10-09T15:31:32.466Z,3.35
2022-10-09T15:34:02.111Z,3.00
2022-10-09T15:36:31.786Z,2.65
2022-10-09T15:39:02.842Z,2.80
2022-10-09T15:41:34.083Z,2.95
2022-10-09T15:44:03.511Z,3.38
2022-10-09T15:46:31.894Z,2.92
2022-10-09T15:48:59.595Z,3.95
2022-10-09T15:51:29.214Z,3.60
2022-10-09T15:53:57.232Z,3.50
2022-10-09T15:56:25.744Z,6.60
2022-10-09T15:58:56.460Z,3.15
2022-10-09T16:01:24.955Z,6.07
2022-10-09T16:03:53.070Z,4.72
2022-10-09T16:06:22.874Z,3.67
2022-10-09T16:08:51.007Z,4.07
2022-10-09T16:11:21.901Z,6.68
2022-10-09T16:13:54.848Z,3.65
2022-10-09T16:16:25.215Z,3.65
2022-10-09T16:18:53.387Z,2.30
2022-10-09T16:21:23.447Z,5.10
2022-10-09T16:23:55.787Z,5.10
2022-10-09T16:26:26.310Z,6.10
2022-10-09T16:28:55.404Z,4.18
2022-10-09T16:31:26.123Z,5.55
2022-10-09T16:33:54.569Z,5.40
2022-10-09T16:36:22.380Z,4.93
2022-10-09T16:38:50.213Z,17.55
2022-10-09T16:41:20.392Z,4.30
2022-10-09T16:43:49.655Z,6.00
2022-10-09T16:46:21.617Z,6.88
2022-10-09T16:48:50.364Z,2.97
2022-10-09T16:51:20.575Z,3.78
2022-10-09T16:53:50.249Z,4.15
2022-10-09T16:56:20.837Z,6.95
2022-10-09T16:58:49.010Z,2.72
2022-10-09T17:01:17.287Z,6.38
2022-10-09T17:03:46.429Z,2.75
2022-10-09T17:06:16.297Z,3.90
2022-10-09T17:08:44.286Z,5.45
2022-10-09T17:11:13.985Z,8.43
2022-10-09T17:13:41.913Z,5.85
2022-10-09T17:16:17.098Z,9.18
2022-10-09T17:18:47.713Z,10.85
2022-10-09T17:21:17.593Z,6.07
2022-10-09T17:23:45.634Z,5.47
2022-10-09T17:26:15.106Z,6.80
2022-10-09T17:28:43.816Z,5.25
2022-10-09T17:31:14.412Z,7.35
2022-10-09T17:33:44.872Z,8.45
2022-10-09T17:36:16.162Z,9.27
2022-10-09T17:38:44.348Z,10.68
2022-10-09T17:41:14.722Z,8.10
2022-10-09T17:43:43.000Z,9.93
2022-10-09T17:46:10.900Z,7.15
2022-10-09T17:48:44.114Z,8.63
2022-10-09T17:51:15.650Z,7.90
2022-10-09T17:53:43.588Z,4.88
2022-10-09T17:56:11.410Z,6.97
2022-10-09T17:58:39.479Z,7.60
2022-10-09T18:01:08.549Z,6.80
2022-10-09T18:03:36.471Z,9.18
2022-10-09T18:06:06.481Z,11.93
2022-10-09T18:08:35.986Z,7.82
2022-10-09T18:11:07.472Z,10.82
2022-10-09T18:13:35.803Z,12.55
2022-10-09T18:16:06.806Z,13.38
2022-10-09T18:18:35.495Z,10.50
2022-10-09T18:21:05.514Z,12.45
2022-10-09T18:23:35.016Z,9.60
2022-10-09T18:26:07.160Z,10.43
2022-10-09T18:28:35.116Z,7.90
2022-10-09T18:31:05.998Z,9.05
2022-10-09T18:33:33.902Z,8.93
2022-10-09T18:36:04.949Z,7.32
2022-10-09T18:38:32.671Z,6.15
2022-10-09T18:41:01.999Z,5.90
2022-10-09T18:43:30.017Z,6.55
2022-10-09T18:46:00.158Z,6.00
2022-10-09T18:48:29.464Z,11.57
2022-10-09T18:50:57.607Z,8.10
2022-10-09T18:53:25.680Z,5.65
2022-10-09T18:55:54.113Z,7.75
2022-10-09T18:58:23.867Z,6.05
2022-10-09T19:00:51.861Z,5.70
2022-10-09T19:03:19.860Z,7.82
2022-10-09T19:05:48.106Z,6.32
2022-10-09T19:08:16.325Z,5.35
2022-10-09T19:10:49.815Z,4.50
2022-10-09T19:13:17.692Z,5.63
2022-10-09T19:15:52.730Z,6.47
2022-10-09T19:18:20.782Z,4.35
2022-10-09T19:20:48.606Z,5.00
2022-10-09T19:23:16.972Z,6.05
2022-10-09T19:25:49.309Z,6.38
2022-10-09T19:28:17.262Z,6.53
2022-10-09T19:30:45.787Z,9.18
2022-10-09T19:33:15.703Z,7.53
2022-10-09T19:35:48.852Z,6.65
2022-10-09T19:38:17.240Z,8.23
2022-10-09T19:40:46.259Z,6.00
2022-10-09T19:43:16.145Z,6.47
2022-10-09T19:45:44.949Z,7.78
2022-10-09T19:48:12.910Z,9.32
2022-10-09T19:50:46.918Z,8.70
2022-10-09T19:53:15.509Z,6.30
2022-10-09T19:55:43.476Z,6.93
2022-10-09T19:58:11.694Z,12.73
2022-10-09T20:00:43.447Z,9.98
2022-10-09T20:03:11.894Z,8.40
2022-10-09T20:05:39.977Z,5.78
2022-10-09T20:08:09.379Z,7.30
2022-10-09T20:10:37.797Z,6.18
2022-10-09T20:13:06.759Z,5.72
2022-10-09T20:15:34.579Z,5.70
2022-10-09T20:18:02.477Z,4.38
2022-10-09T20:20:30.583Z,6.88
2022-10-09T20:22:58.554Z,5.60
2022-10-09T20:25:28.225Z,6.38
2022-10-09T20:27:56.287Z,5.63
2022-10-09T20:30:24.145Z,5.25
2022-10-09T20:32:55.425Z,9.05
2022-10-09T20:35:26.686Z,8.05
2022-10-09T20:37:54.627Z,7.35
2022-10-09T20:40:22.661Z,6.00
2022-10-09T20:42:53.482Z,4.95
2022-10-09T20:45:21.335Z,5.65
2022-10-09T20:47:50.164Z,5.03
2022-10-09T20:50:18.370Z,6.85
2022-10-09T20:52:46.386Z,8.30
2022-10-09T20:55:14.329Z,5.53
2022-10-09T20:57:42.172Z,5.18
2022-10-09T21:00:13.231Z,4.93
2022-10-09T21:02:41.202Z,4.32
2022-10-09T21:05:09.993Z,8.73
2022-10-09T21:07:37.737Z,4.68
2022-10-09T21:10:06.144Z,6.72
2022-10-09T21:12:33.978Z,4.40
2022-10-09T21:15:01.724Z,5.43
2022-10-09T21:17:30.775Z,4.70
2022-10-09T21:19:58.539Z,4.88
2022-10-09T21:22:26.763Z,8.68
2022-10-09T21:24:54.415Z,4.78
2022-10-09T21:27:22.056Z,7.10
2022-10-09T21:29:49.822Z,5.55
2022-10-09T21:32:17.489Z,5.30
2022-10-09T21:34:46.815Z,4.75
2022-10-09T21:37:22.567Z,6.05
2022-10-09T21:39:50.511Z,6.75
2022-10-09T21:42:18.195Z,6.28
2022-10-09T21:44:46.011Z,5.70
2022-10-09T21:47:18.363Z,5.95
2022-10-09T21:49:47.430Z,5.35
2022-10-09T21:52:15.389Z,4.72
2022-10-09T21:54:43.279Z,6.20
2022-10-09T21:57:10.975Z,6.85
2022-10-09T21:59:38.713Z,5.15
2022-10-09T22:02:06.395Z,8.65
2022-10-09T22:04:34.185Z,5.93
2022-10-09T22:07:03.285Z,7.60
2022-10-09T22:09:30.958Z,5.10
2022-10-09T22:12:00.202Z,5.72
2022-10-09T22:14:27.969Z,6.20
2022-10-09T22:16:55.666Z,5.60
2022-10-09T22:19:23.373Z,4.78
2022-10-09T22:21:51.101Z,5.55
2022-10-09T22:24:20.067Z,4.63
2022-10-09T22:26:47.954Z,9.23
2022-10-09T22:29:15.735Z,5.22
2022-10-09T22:31:43.463Z,5.03
2022-10-09T22:34:11.243Z,5.53
2022-10-09T22:36:38.847Z,5.65
2022-10-09T22:39:07.898Z,5.30
2022-10-09T22:41:36.954Z,5.85
2022-10-09T22:44:06.401Z,4.50
2022-10-09T22:46:36.182Z,4.97
2022-10-09T22:49:04.607Z,4.80
2022-10-09T22:51:32.541Z,4.60
2022-10-09T22:54:01.182Z,5.80
2022-10-09T22:56:31.358Z,8.73
2022-10-09T22:59:00.603Z,4.32
2022-10-09T23:01:31.571Z,6.97
2022-10-09T23:04:00.818Z,7.88
2022-10-09T23:06:28.841Z,4.10
2022-10-09T23:08:57.352Z,4.57
2022-10-09T23:11:25.573Z,4.40
2022-10-09T23:13:53.859Z,6.60
2022-10-09T23:16:23.286Z,6.15
2022-10-09T23:18:51.347Z,5.30
2022-10-09T23:21:22.640Z,4.65
2022-10-09T23:23:51.935Z,4.15
2022-10-09T23:26:22.284Z,8.50
2022-10-09T23:28:51.142Z,3.60
2022-10-09T23:31:19.358Z,3.85
2022-10-09T23:33:48.484Z,4.53
2022-10-09T23:36:18.538Z,6.78
2022-10-09T23:38:46.814Z,4.60
2022-10-09T23:41:19.211Z,5.68
2022-10-09T23:43:48.086Z,4.20
2022-10-09T23:46:18.731Z,3.65
2022-10-09T23:48:48.928Z,5.65
2022-10-09T23:51:17.478Z,5.30
2022-10-09T23:53:45.422Z,3.40
2022-10-09T23:56:17.792Z,5.93
2022-10-09T23:58:46.607Z,5.68
